createdAt,value
2023-09-08T00:02:03.086Z,98848.06
2023-09-08T00:04:29.527Z,98852.34
2023-09-08T00:06:55.983Z,98850.19
2023-09-08T00:09:22.365Z,98844.59
2023-09-08T00:11:48.817Z,98848.56
2023-09-08T00:14:15.175Z,98845.91
2023-09-08T00:16:43.906Z,98840.56
2023-09-08T00:19:11.109Z,98844.31
2023-09-08T00:21:37.592Z,98838.97
2023-09-08T00:24:05.048Z,98842.69
2023-09-08T00:26:31.533Z,98844.56
2023-09-08T00:28:57.904Z,98826.91
2023-09-08T00:31:24.296Z,98832.81
2023-09-08T00:33:50.739Z,98835.75
2023-09-08T00:36:17.338Z,98837.59
2023-09-08T00:38:43.767Z,98836.56
2023-09-08T00:41:10.195Z,98832.53
2023-09-08T00:43:36.644Z,98833.59
2023-09-08T00:46:03.895Z,98822.66
2023-09-08T00:48:30.556Z,98829.06
2023-09-08T00:50:57.247Z,98825.59
2023-09-08T00:53:23.630Z,98825.59
2023-09-08T00:55:49.984Z,98831.19
2023-09-08T00:58:16.410Z,98833.84
2023-09-08T01:00:42.806Z,98833.59
2023-09-08T01:03:09.251Z,98836.25
2023-09-08T01:05:35.856Z,98834.66
2023-09-08T01:08:02.310Z,98830.63
2023-09-08T01:10:28.667Z,98834.09
2023-09-08T01:12:55.042Z,98831.97
2023-09-08T01:15:21.468Z,98833.00
2023-09-08T01:17:47.946Z,98829.00
2023-09-08T01:20:17.453Z,98833.75
2023-09-08T01:23:03.654Z,98831.09
2023-09-08T01:25:30.338Z,98831.09
2023-09-08T01:27:57.240Z,98830.81
2023-09-08T01:30:24.445Z,98824.94
2023-09-08T01:32:51.528Z,98826.00
2023-09-08T01:35:17.960Z,98828.38
2023-09-08T01:37:47.660Z,98828.66
2023-09-08T01:40:14.086Z,98820.34
2023-09-08T01:42:40.465Z,98825.97
2023-09-08T01:45:07.328Z,98822.22
2023-09-08T01:47:33.724Z,98819.06
2023-09-08T01:50:00.136Z,98819.56
2023-09-08T01:52:26.588Z,98812.13
2023-09-08T01:54:53.711Z,98811.81
2023-09-08T01:57:20.099Z,98811.03
2023-09-08T01:59:46.481Z,98811.03
2023-09-08T02:02:12.853Z,98806.78
2023-09-08T02:04:39.277Z,98803.84
2023-09-08T02:07:06.028Z,98807.81
2023-09-08T02:09:35.487Z,98809.44
2023-09-08T02:12:02.087Z,98802.47
2023-09-08T02:14:28.738Z,98799.78
2023-09-08T02:16:55.606Z,98806.72
2023-09-08T02:19:22.184Z,98814.19
2023-09-08T02:21:48.607Z,98809.09
2023-09-08T02:24:15.069Z,98805.38
2023-09-08T02:26:41.515Z,98806.19
2023-09-08T02:29:08.331Z,98810.44
2023-09-08T02:31:34.796Z,98811.81
2023-09-08T02:34:01.164Z,98812.34
2023-09-08T02:36:27.688Z,98812.91
2023-09-08T02:38:54.342Z,98815.81
2023-09-08T02:41:20.728Z,98809.94
2023-09-08T02:43:47.237Z,98816.31
2023-09-08T02:46:13.808Z,98812.28
2023-09-08T02:48:40.228Z,98815.78
2023-09-08T02:51:07.643Z,98817.66
2023-09-08T02:53:34.049Z,98818.72
2023-09-08T02:56:00.508Z,98818.16
2023-09-08T02:58:27.156Z,98824.56
2023-09-08T03:00:53.713Z,98830.19
2023-09-08T03:03:20.749Z,98824.84
2023-09-08T03:05:47.397Z,98824.84
2023-09-08T03:08:14.018Z,98825.91
2023-09-08T03:10:41.181Z,98823.25
2023-09-08T03:13:07.570Z,98826.41
2023-09-08T03:15:35.268Z,98830.41
2023-09-08T03:18:01.731Z,98823.44
2023-09-08T03:20:29.516Z,98823.41
2023-09-08T03:22:56.102Z,98818.81
2023-09-08T03:25:22.472Z,98825.47
2023-09-08T03:27:48.851Z,98826.28
2023-09-08T03:30:15.228Z,98819.88
2023-09-08T03:32:41.774Z,98818.00
2023-09-08T03:35:08.625Z,98830.28
2023-09-08T03:37:35.723Z,98820.63
2023-09-08T03:40:02.184Z,98818.78
2023-09-08T03:42:28.629Z,98824.09
2023-09-08T03:44:54.992Z,98817.66
2023-09-08T03:47:21.507Z,98821.41
2023-09-08T03:49:48.152Z,98817.94
2023-09-08T03:52:14.582Z,98820.84
2023-09-08T03:54:40.958Z,98819.25
2023-09-08T03:57:07.333Z,98809.38
2023-09-08T03:59:33.760Z,98814.47
2023-09-08T04:02:01.683Z,98814.47
2023-09-08T04:04:28.108Z,98815.00
2023-09-08T04:06:54.511Z,98807.25
2023-09-08T04:09:20.911Z,98812.06
2023-09-08T04:11:47.432Z,98808.31
2023-09-08T04:14:13.890Z,98810.69
2023-09-08T04:16:40.503Z,98812.28
2023-09-08T04:19:06.880Z,98808.03
2023-09-08T04:21:33.247Z,98809.09
2023-09-08T04:23:59.934Z,98807.22
2023-09-08T04:26:26.309Z,98811.75
2023-09-08T04:28:52.765Z,98816.03
2023-09-08T04:31:20.370Z,98810.16
2023-09-08T04:33:46.760Z,98814.91
2023-09-08T04:36:14.317Z,98807.97
2023-09-08T04:38:42.765Z,98811.41
2023-09-08T04:41:09.270Z,98803.66
2023-09-08T04:43:35.916Z,98806.56
2023-09-08T04:46:04.646Z,98799.38
2023-09-08T04:48:31.415Z,98800.44
2023-09-08T04:50:58.070Z,98784.44
2023-09-08T04:53:24.497Z,98796.69
2023-09-08T04:55:52.144Z,98794.56
2023-09-08T04:58:18.568Z,98791.09
2023-09-08T05:00:44.963Z,98792.97
2023-09-08T05:03:11.461Z,98800.16
2023-09-08T05:05:37.969Z,98799.31
2023-09-08T05:08:05.054Z,98802.81
2023-09-08T05:10:31.468Z,98796.91
2023-09-08T05:12:57.846Z,98795.31
2023-09-08T05:15:26.217Z,98805.72
2023-09-08T05:17:52.749Z,98805.22
2023-09-08T05:20:19.132Z,98800.69
2023-09-08T05:22:45.694Z,98804.97
2023-09-08T05:25:12.139Z,98806.34
2023-09-08T05:27:38.539Z,98805.28
2023-09-08T05:30:05.171Z,98800.47
2023-09-08T05:32:31.660Z,98809.03
2023-09-08T05:34:58.072Z,98803.19
2023-09-08T05:37:24.448Z,98800.03
2023-09-08T05:39:50.828Z,98804.28
2023-09-08T05:42:17.375Z,98806.47
2023-09-08T05:44:43.774Z,98801.44
2023-09-08T05:47:10.291Z,98804.38
2023-09-08T05:49:37.612Z,98799.59
2023-09-08T05:52:04.425Z,98805.53
2023-09-08T05:54:31.545Z,98806.63
2023-09-08T05:56:57.983Z,98801.84
2023-09-08T05:59:24.334Z,98801.28
2023-09-08T06:01:50.799Z,98801.84
2023-09-08T06:04:17.285Z,98803.44
2023-09-08T06:06:43.739Z,98799.41
2023-09-08T06:09:13.118Z,98806.91
2023-09-08T06:11:39.525Z,98800.97
2023-09-08T06:14:05.948Z,98804.78
2023-09-08T06:16:32.412Z,98804.81
2023-09-08T06:18:59.139Z,98803.53
2023-09-08T06:21:25.831Z,98799.28
2023-09-08T06:23:52.219Z,98801.47
2023-09-08T06:26:18.666Z,98803.03
2023-09-08T06:28:45.280Z,98808.66
2023-09-08T06:31:11.691Z,98807.09
2023-09-08T06:33:38.238Z,98809.47
2023-09-08T06:36:04.703Z,98807.75
2023-09-08T06:38:32.620Z,98816.41
2023-09-08T06:40:59.348Z,98804.75
2023-09-08T06:43:25.737Z,98811.44
2023-09-08T06:45:52.156Z,98812.63
2023-09-08T06:48:18.715Z,98808.88
2023-09-08T06:50:45.185Z,98815.97
2023-09-08T06:53:13.629Z,98813.72
2023-09-08T06:55:42.110Z,98810.16
2023-09-08T06:58:10.068Z,98804.63
2023-09-08T07:00:36.509Z,98808.72
2023-09-08T07:03:03.501Z,98803.13
2023-09-08T07:05:30.333Z,98812.66
2023-09-08T07:07:56.762Z,98812.28
2023-09-08T07:10:23.235Z,98812.03
2023-09-08T07:12:50.207Z,98812.00
2023-09-08T07:15:16.587Z,98800.59
2023-09-08T07:17:43.129Z,98799.78
2023-09-08T07:20:09.893Z,98799.19
2023-09-08T07:22:36.267Z,98806.22
2023-09-08T07:25:02.710Z,98803.44
2023-09-08T07:27:29.083Z,98804.56
2023-09-08T07:29:55.511Z,98801.72
2023-09-08T07:32:21.934Z,98806.94
2023-09-08T07:34:53.352Z,98810.13
2023-09-08T07:39:46.822Z,98805.84
2023-09-08T07:42:13.177Z,98807.47
2023-09-08T07:44:39.561Z,98805.88
2023-09-08T07:47:06.125Z,98810.72
2023-09-08T07:49:34.116Z,98804.91
2023-09-08T07:52:00.517Z,98819.03
2023-09-08T07:54:26.873Z,98817.72
2023-09-08T07:56:53.295Z,98818.88
2023-09-08T07:59:19.719Z,98811.44
2023-09-08T08:01:46.182Z,98810.69
2023-09-08T08:04:12.935Z,98818.91
2023-09-08T08:06:39.436Z,98813.81
2023-09-08T08:09:05.928Z,98810.41
2023-09-08T08:11:32.400Z,98820.34
2023-09-08T08:13:58.856Z,98807.44
2023-09-08T08:16:25.577Z,98810.94
2023-09-08T08:18:52.193Z,98817.34
2023-09-08T08:21:18.681Z,98821.13
2023-09-08T08:23:45.202Z,98816.84
2023-09-08T08:26:11.727Z,98823.78
2023-09-08T08:28:38.119Z,98812.00
2023-09-08T08:31:05.362Z,98819.50
2023-09-08T08:33:31.830Z,98811.78
2023-09-08T08:35:58.276Z,98816.63
2023-09-08T08:38:24.643Z,98811.28
2023-09-08T08:40:51.445Z,98813.66
2023-09-08T08:43:17.904Z,98817.16
2023-09-08T08:45:44.550Z,98809.97
2023-09-08T08:48:11.027Z,98815.31
2023-09-08T08:50:38.425Z,98809.44
2023-09-08T08:53:04.879Z,98817.47
2023-09-08T08:55:31.334Z,98813.44
2023-09-08T08:58:02.078Z,98812.66
2023-09-08T09:00:28.490Z,98822.03
2023-09-08T09:03:07.168Z,98821.25
2023-09-08T09:05:40.141Z,98819.66
2023-09-08T09:08:06.806Z,98814.28
2023-09-08T09:10:33.167Z,98815.09
2023-09-08T09:12:59.945Z,98812.41
2023-09-08T09:15:33.667Z,98821.25
2023-09-08T09:18:04.659Z,98812.16
2023-09-08T09:20:31.077Z,98812.75
2023-09-08T09:22:57.448Z,98818.09
2023-09-08T09:25:24.559Z,98808.16
2023-09-08T09:27:57.904Z,98800.66
2023-09-08T09:30:24.359Z,98796.41
2023-09-08T09:32:59.482Z,98800.69
2023-09-08T09:35:41.192Z,98802.56
2023-09-08T09:38:08.287Z,98808.19
2023-09-08T09:40:34.653Z,98794.03
2023-09-08T09:43:01.034Z,98793.75
2023-09-08T09:45:27.452Z,98793.72
2023-09-08T09:47:53.822Z,98790.53
2023-09-08T09:50:34.150Z,98796.16
2023-09-08T09:53:10.851Z,98790.22
2023-09-08T09:55:37.647Z,98793.47
2023-09-08T09:58:04.994Z,98789.69
2023-09-08T10:00:31.594Z,98789.66
2023-09-08T10:02:58.136Z,98788.09
2023-09-08T10:05:24.826Z,98791.53
2023-09-08T10:07:51.206Z,98787.25
2023-09-08T10:10:17.935Z,98786.47
2023-09-08T10:12:45.189Z,98784.38
2023-09-08T10:15:11.756Z,98783.81
2023-09-08T10:17:38.232Z,98785.13
2023-09-08T10:20:12.758Z,98793.44
2023-09-08T10:22:39.596Z,98788.66
2023-09-08T10:25:06.919Z,98785.91
2023-09-08T10:27:33.692Z,98785.41
2023-09-08T10:30:01.935Z,98779.25
2023-09-08T10:32:28.394Z,98784.88
2023-09-08T10:34:55.228Z,98782.44
2023-09-08T10:37:22.142Z,98778.16
2023-09-08T10:39:48.623Z,98779.25
2023-09-08T10:42:18.150Z,98777.38
2023-09-08T10:44:44.746Z,98780.38
2023-09-08T10:47:11.273Z,98780.91
2023-09-08T10:49:37.862Z,98779.06
2023-09-08T10:52:10.424Z,98781.44
2023-09-08T10:54:43.013Z,98775.81
2023-09-08T10:57:16.306Z,98779.53
2023-09-08T10:59:46.048Z,98767.75
2023-09-08T11:02:55.914Z,98769.16
2023-09-08T11:05:22.683Z,98762.47
2023-09-08T11:07:50.735Z,98759.78
2023-09-08T11:10:17.446Z,98760.59
2023-09-08T11:12:43.862Z,98760.34
2023-09-08T11:15:10.410Z,98771.31
2023-09-08T11:17:40.716Z,98771.31
2023-09-08T11:20:12.112Z,98762.22
2023-09-08T11:22:38.842Z,98767.56
2023-09-08T11:25:05.846Z,98760.31
2023-09-08T11:27:32.303Z,98763.53
2023-09-08T11:29:58.727Z,98752.56
2023-09-08T11:32:25.802Z,98757.63
2023-09-08T11:34:52.177Z,98760.56
2023-09-08T11:37:19.238Z,98754.41
2023-09-08T11:39:46.171Z,98760.56
2023-09-08T11:42:15.823Z,98753.06
2023-09-08T11:44:42.519Z,98753.06
2023-09-08T11:47:09.941Z,98753.34
2023-09-08T11:49:40.017Z,98752.53
2023-09-08T11:52:06.531Z,98750.06
2023-09-08T11:54:32.946Z,98757.38
2023-09-08T11:57:00.746Z,98746.91
2023-09-08T11:59:27.967Z,98747.44
2023-09-08T12:01:54.364Z,98748.53
2023-09-08T12:04:21.730Z,98743.41
2023-09-08T12:06:51.001Z,98742.38
2023-09-08T12:09:17.594Z,98736.25
2023-09-08T12:11:44.011Z,98735.13
2023-09-08T12:14:13.543Z,98731.94
2023-09-08T12:16:40.177Z,98739.69
2023-09-08T12:19:07.318Z,98740.22
2023-09-08T12:21:36.075Z,98735.41
2023-09-08T12:24:02.473Z,98734.88
2023-09-08T12:26:28.863Z,98733.78
2023-09-08T12:28:55.247Z,98738.91
2023-09-08T12:31:22.853Z,98727.63
2023-09-08T12:33:49.322Z,98727.34
2023-09-08T12:36:16.266Z,98722.00
2023-09-08T12:38:42.764Z,98726.31
2023-09-08T12:41:09.209Z,98721.78
2023-09-08T12:43:36.366Z,98714.50
2023-09-08T12:46:02.800Z,98716.91
2023-09-08T12:48:29.197Z,98715.34
2023-09-08T12:50:55.651Z,98706.78
2023-09-08T12:53:24.258Z,98711.84
2023-09-08T12:55:50.920Z,98709.16
2023-09-08T12:58:17.566Z,98710.25
2023-09-08T13:00:44.322Z,98711.56
2023-09-08T13:03:10.868Z,98709.16
2023-09-08T13:05:39.616Z,98705.16
2023-09-08T13:08:06.285Z,98704.06
2023-09-08T13:10:32.736Z,98702.72
2023-09-08T13:12:59.191Z,98708.59
2023-09-08T13:15:25.711Z,98710.72
2023-09-08T13:17:52.535Z,98701.03
2023-09-08T13:20:19.058Z,98694.56
2023-09-08T13:22:45.548Z,98698.56
2023-09-08T13:25:12.039Z,98696.72
2023-09-08T13:27:38.860Z,98700.81
2023-09-08T13:30:14.470Z,98704.06
2023-09-08T13:32:41.028Z,98696.78
2023-09-08T13:35:07.775Z,98697.00
2023-09-08T13:37:35.498Z,98693.25
2023-09-08T13:40:02.509Z,98688.53
2023-09-08T13:42:28.998Z,98695.75
2023-09-08T13:44:56.520Z,98686.41
2023-09-08T13:47:23.381Z,98689.91
2023-09-08T13:49:50.797Z,98689.91
2023-09-08T13:52:19.358Z,98682.94
2023-09-08T13:54:46.471Z,98688.28
2023-09-08T13:57:14.657Z,98680.50
2023-09-08T13:59:43.418Z,98683.72
2023-09-08T14:02:28.966Z,98675.72
2023-09-08T14:05:02.120Z,98682.41
2023-09-08T14:07:36.686Z,98680.81
2023-09-08T14:10:26.369Z,98680.25
2023-09-08T14:12:54.617Z,98678.38
2023-09-08T14:15:21.117Z,98680.53
2023-09-08T14:17:47.543Z,98679.72
2023-09-08T14:20:14.027Z,98681.34
2023-09-08T14:22:40.878Z,98678.66
2023-09-08T14:25:07.470Z,98670.34
2023-09-08T14:27:34.796Z,98674.09
2023-09-08T14:30:01.274Z,98670.63
2023-09-08T14:32:27.745Z,98679.44
2023-09-08T14:34:54.125Z,98667.66
2023-09-08T14:37:20.482Z,98665.53
2023-09-08T14:39:46.922Z,98661.78
2023-09-08T14:42:14.266Z,98661.78
2023-09-08T14:44:40.932Z,98657.75
2023-09-08T14:47:07.296Z,98657.75
2023-09-08T14:49:33.654Z,98661.00
2023-09-08T14:52:00.006Z,98662.88
2023-09-08T14:54:27.312Z,98666.06
2023-09-08T14:56:53.682Z,98668.47
2023-09-08T14:59:20.057Z,98668.72
2023-09-08T15:01:46.597Z,98665.81
2023-09-08T15:04:13.054Z,98669.53
2023-09-08T15:06:39.477Z,98664.44
2023-09-08T15:09:06.151Z,98671.41
2023-09-08T15:11:32.667Z,98668.47
2023-09-08T15:13:59.100Z,98662.06
2023-09-08T15:16:25.588Z,98665.28
2023-09-08T15:18:52.000Z,98653.75
2023-09-08T15:21:19.864Z,98651.09
2023-09-08T15:23:46.292Z,98657.22
2023-09-08T15:26:12.728Z,98651.38
2023-09-08T15:28:39.758Z,98654.56
2023-09-08T15:31:06.194Z,98655.63
2023-09-08T15:33:32.784Z,98651.88
2023-09-08T15:35:59.328Z,98648.94
2023-09-08T15:38:25.718Z,98654.56
2023-09-08T15:41:17.880Z,98658.59
2023-09-08T15:43:45.461Z,98652.69
2023-09-08T15:46:11.864Z,98645.19
2023-09-08T15:48:38.295Z,98645.75
2023-09-08T15:51:05.199Z,98641.75
2023-09-08T15:53:32.617Z,98638.81
2023-09-08T15:55:58.983Z,98649.78
2023-09-08T15:58:25.384Z,98644.44
2023-09-08T16:00:52.138Z,98644.44
2023-09-08T16:03:18.779Z,98639.88
2023-09-08T16:05:45.360Z,98638.81
2023-09-08T16:08:11.747Z,98642.03
2023-09-08T16:10:38.116Z,98639.09
2023-09-08T16:13:04.579Z,98629.47
2023-09-08T16:15:31.143Z,98629.75
2023-09-08T16:18:01.074Z,98633.47
2023-09-08T16:20:27.677Z,98632.66
2023-09-08T16:22:54.384Z,98633.22
2023-09-08T16:25:20.805Z,98630.56
2023-09-08T16:27:47.201Z,98632.19
2023-09-08T16:30:13.638Z,98630.84
2023-09-08T16:32:40.831Z,98630.56
2023-09-08T16:35:07.576Z,98633.25
2023-09-08T16:37:33.936Z,98635.13
2023-09-08T16:40:00.297Z,98636.47
2023-09-08T16:42:26.686Z,98626.03
2023-09-08T16:44:53.128Z,98628.97
2023-09-08T16:47:21.313Z,98630.56
2023-09-08T16:49:48.049Z,98634.88
2023-09-08T16:52:14.452Z,98633.00
2023-09-08T16:54:40.847Z,98628.97
2023-09-08T16:57:07.287Z,98631.38
2023-09-08T16:59:33.695Z,98631.94
2023-09-08T17:02:00.297Z,98623.94
2023-09-08T17:04:26.802Z,98629.53
2023-09-08T17:06:53.251Z,98633.03
2023-09-08T17:09:19.833Z,98631.97
2023-09-08T17:11:46.200Z,98631.41
2023-09-08T17:14:13.881Z,98636.50
2023-09-08T17:16:40.299Z,98630.09
2023-09-08T17:19:07.030Z,98633.28
2023-09-08T17:21:33.391Z,98628.75
2023-09-08T17:23:59.794Z,98629.53
2023-09-08T17:26:26.766Z,98630.31
2023-09-08T17:28:53.822Z,98629.81
2023-09-08T17:31:21.819Z,98629.81
2023-09-08T17:33:54.016Z,98633.00
2023-09-08T17:36:21.850Z,98629.53
2023-09-08T17:38:49.186Z,98626.06
2023-09-08T17:41:19.960Z,98627.16
2023-09-08T17:43:47.968Z,98629.81
2023-09-08T17:46:14.903Z,98625.50
2023-09-08T17:48:46.080Z,98625.78
2023-09-08T17:51:12.510Z,98627.66
2023-09-08T17:53:39.200Z,98628.47
2023-09-08T17:56:05.760Z,98636.75
2023-09-08T17:58:32.235Z,98634.63
2023-09-08T18:00:58.738Z,98631.94
2023-09-08T18:03:25.352Z,98639.69
2023-09-08T18:05:51.985Z,98639.16
2023-09-08T18:08:18.790Z,98650.13
2023-09-08T18:10:47.281Z,98652.78
2023-09-08T18:13:13.788Z,98651.72
2023-09-08T18:15:40.223Z,98646.38
2023-09-08T18:18:06.820Z,98650.94
2023-09-08T18:20:35.988Z,98649.06
2023-09-08T18:23:02.352Z,98646.38
2023-09-08T18:25:28.838Z,98648.50
2023-09-08T18:27:55.274Z,98642.09
2023-09-08T18:30:21.668Z,98645.56
2023-09-08T18:32:48.079Z,98650.09
2023-09-08T18:35:14.560Z,98652.53
2023-09-08T18:37:41.063Z,98653.06
2023-09-08T18:40:09.314Z,98650.66
2023-09-08T18:42:37.611Z,98651.19
2023-09-08T18:45:04.458Z,98654.94
2023-09-08T18:47:30.905Z,98645.84
2023-09-08T18:50:00.110Z,98651.72
2023-09-08T18:52:26.552Z,98650.38
2023-09-08T18:54:52.924Z,98654.66
2023-09-08T18:57:19.273Z,98647.97
2023-09-08T18:59:45.622Z,98656.78
2023-09-08T19:02:12.056Z,98660.50
2023-09-08T19:04:38.534Z,98660.50
2023-09-08T19:07:05.073Z,98665.03
2023-09-08T19:09:31.508Z,98662.13
2023-09-08T19:11:57.879Z,98662.13
2023-09-08T19:14:27.944Z,98653.81
2023-09-08T19:16:54.742Z,98657.28
2023-09-08T19:19:21.594Z,98659.16
2023-09-08T19:21:48.145Z,98660.72
2023-09-08T19:24:16.740Z,98656.97
2023-09-08T19:26:43.133Z,98653.53
2023-09-08T19:29:09.500Z,98653.25
2023-09-08T19:31:35.877Z,98652.94
2023-09-08T19:34:02.708Z,98654.00
2023-09-08T19:36:29.143Z,98655.88
2023-09-08T19:38:55.523Z,98655.34
2023-09-08T19:41:24.968Z,98659.81
2023-09-08T19:43:52.090Z,98649.97
2023-09-08T19:46:18.508Z,98652.88
2023-09-08T19:48:45.022Z,98645.97
2023-09-08T19:51:11.615Z,98650.53
2023-09-08T19:53:38.238Z,98651.25
2023-09-08T19:56:04.952Z,98657.91
2023-09-08T19:58:31.691Z,98653.19
2023-09-08T20:01:07.299Z,98652.88
2023-09-08T20:03:34.934Z,98651.00
2023-09-08T20:06:04.810Z,98651.28
2023-09-08T20:08:31.829Z,98647.53
2023-09-08T20:10:58.451Z,98648.84
2023-09-08T20:13:24.820Z,98649.41
2023-09-08T20:16:07.815Z,98650.97
2023-09-08T20:18:35.003Z,98648.25
2023-09-08T20:21:05.690Z,98650.88
2023-09-08T20:23:32.543Z,98648.19
2023-09-08T20:25:59.164Z,98645.78
2023-09-08T20:28:25.546Z,98646.09
2023-09-08T20:31:05.018Z,98645.56
2023-09-08T20:33:39.553Z,98643.75
2023-09-08T20:36:06.048Z,98643.50
2023-09-08T20:38:33.614Z,98643.50
2023-09-08T20:41:00.118Z,98645.13
2023-09-08T20:43:26.510Z,98643.50
2023-09-08T20:45:56.102Z,98644.28
2023-09-08T20:48:22.733Z,98645.31
2023-09-08T20:50:49.447Z,98642.66
2023-09-08T20:53:15.824Z,98641.84
2023-09-08T20:55:42.265Z,98641.03
2023-09-08T20:58:08.743Z,98641.03
2023-09-08T21:00:35.519Z,98636.50
2023-09-08T21:03:01.992Z,98635.44
2023-09-08T21:05:28.433Z,98637.34
2023-09-08T21:07:55.824Z,98641.38
2023-09-08T21:10:22.348Z,98640.28
2023-09-08T21:12:48.861Z,98636.53
2023-09-08T21:15:15.425Z,98632.28
2023-09-08T21:17:41.889Z,98636.53
2023-09-08T21:20:08.721Z,98636.25
2023-09-08T21:22:35.115Z,98626.88
2023-09-08T21:25:01.516Z,98634.38
2023-09-08T21:27:28.043Z,98628.47
2023-09-08T21:29:54.748Z,98630.06
2023-09-08T21:32:22.680Z,98634.63
2023-09-08T21:34:49.042Z,98635.88
2023-09-08T21:37:15.497Z,98636.69
2023-09-08T21:39:41.856Z,98635.56
2023-09-08T21:42:08.651Z,98637.47
2023-09-08T21:44:35.127Z,98635.38
2023-09-08T21:47:01.535Z,98635.56
2023-09-08T21:49:28.214Z,98628.59
2023-09-08T21:51:54.652Z,98630.88
2023-09-08T21:54:21.032Z,98631.38
2023-09-08T21:56:47.524Z,98630.16
2023-09-08T21:59:13.891Z,98624.03
2023-09-08T22:01:40.278Z,98626.28
2023-09-08T22:04:06.827Z,98625.09
2023-09-08T22:06:33.310Z,98621.06
2023-09-08T22:08:59.997Z,98628.44
2023-09-08T22:11:26.488Z,98630.06
2023-09-08T22:13:53.038Z,98631.16
2023-09-08T22:16:20.006Z,98631.44
2023-09-08T22:18:46.550Z,98627.69
2023-09-08T22:21:12.986Z,98631.69
2023-09-08T22:23:39.803Z,98623.97
2023-09-08T22:26:13.895Z,98628.50
2023-09-08T22:28:41.066Z,98631.69
2023-09-08T22:31:07.535Z,98631.69
2023-09-08T22:33:34.222Z,98629.59
2023-09-08T22:36:01.402Z,98625.84
2023-09-08T22:38:27.990Z,98627.44
2023-09-08T22:40:54.427Z,98628.00
2023-09-08T22:43:20.864Z,98625.34
2023-09-08T22:45:47.262Z,98625.06
2023-09-08T22:48:13.750Z,98625.06
2023-09-08T22:50:41.000Z,98621.59
2023-09-08T22:53:09.715Z,98622.91
2023-09-08T22:55:36.120Z,98622.69
2023-09-08T22:58:02.650Z,98624.78
2023-09-08T23:00:29.074Z,98624.56
2023-09-08T23:02:55.693Z,98622.13
2023-09-08T23:05:22.165Z,98626.16
2023-09-08T23:07:48.653Z,98617.88
2023-09-08T23:10:15.253Z,98618.94
2023-09-08T23:12:41.794Z,98622.13
2023-09-08T23:15:08.548Z,98616.00
2023-09-08T23:17:35.210Z,98616.56
2023-09-08T23:20:01.702Z,98615.75
2023-09-08T23:22:28.064Z,98614.13
2023-09-08T23:24:54.424Z,98614.94
2023-09-08T23:27:20.986Z,98622.13
2023-09-08T23:29:47.438Z,98616.00
2023-09-08T23:32:13.850Z,98613.88
2023-09-08T23:34:40.356Z,98609.88
2023-09-08T23:37:06.830Z,98619.22
2023-09-08T23:39:33.338Z,98614.91
2023-09-08T23:42:00.916Z,98609.34
2023-09-08T23:44:27.348Z,98608.78
2023-09-08T23:46:53.909Z,98603.19
2023-09-08T23:49:20.299Z,98599.47
2023-09-08T23:51:46.818Z,98602.38
2023-09-08T23:54:13.386Z,98602.66
2023-09-08T23:56:39.778Z,98598.91
2023-09-08T23:59:06.402Z,98601.34
